Data for 11/12/2011

Time Sea-Level Adjusted Pressure Absolute Pressure Temperature Relative Humidity Dew Point   
(mb) (inHg) (mb) (inHg) (C) (F) (%) (C) (F)
00:05 1001 29.56 830 24.51 6.9 44.4 32 -8.6 16.5
00:10 1001 29.56 830 24.51 7 44.6 33 -8.1 17.4
00:15 1001 29.56 830 24.51 6.5 43.7 35 -8 17.6
00:20 1001 29.56 831 24.54 6.4 43.5 35 -8 17.6
00:25 1001 29.56 831 24.54 6.7 44 33 -8.3 17
00:30 1001 29.56 831 24.54 6.6 43.9 35 -7.7 18.1
00:35 1001 29.56 830 24.51 6.7 44 34 -8.1 17.4
00:40 1001 29.56 830 24.51 6.7 44.1 34 -8 17.7
00:45 1001 29.56 830 24.51 6.8 44.2 34 -7.9 17.8
00:50 1001 29.56 830 24.51 6.6 43.8 37 -7 19.4
00:55 1001 29.56 830 24.51 6.4 43.5 38 -7 19.5
01:00 1001 29.56 830 24.51 6.4 43.6 38 -6.7 19.9
01:05 1001 29.56 830 24.51 6.2 43.2 36 -7.6 18.3
01:10 1001 29.56 830 24.51 6.2 43.1 37 -7.4 18.8
01:15 1001 29.56 830 24.51 6.3 43.3 37 -7.2 19.1
01:20 1001 29.56 830 24.51 6.3 43.3 36 -7.6 18.3
01:25 1001 29.56 830 24.51 6.3 43.4 36 -7.7 18.2
01:30 1001 29.56 830 24.51 6.5 43.6 33 -8.5 16.7
01:35 1001 29.56 830 24.51 6.8 44.2 33 -8.3 17.1
01:40 1001 29.56 830 24.51 6.7 44.1 35 -7.6 18.3
01:45 1001 29.56 830 24.51 6.7 44.1 35 -7.7 18.1
01:50 1001 29.56 830 24.51 6.6 43.8 36 -7.4 18.7
01:55 1001 29.56 830 24.51 6.4 43.5 38 -7.1 19.3
02:00 1001 29.56 830 24.51 6 42.9 41 -6.1 21
02:05 1001 29.56 830 24.51 5.9 42.6 40 -6.8 19.8
02:10 1001 29.56 830 24.51 6 42.9 41 -6.3 20.6
02:15 1001 29.56 830 24.51 5.9 42.7 43 -5.8 21.5
02:20 1001 29.56 830 24.51 5.8 42.4 45 -5.3 22.5
02:25 1001 29.56 830 24.51 5.6 42.1 45 -5.4 22.3
02:30 1000 29.53 830 24.51 5.6 42 45 -5.5 22
02:35 1000 29.53 830 24.51 5.5 41.9 45 -5.4 22.2
02:40 1000 29.53 830 24.51 5.4 41.7 44 -5.7 21.7
02:45 1000 29.53 830 24.51 5.3 41.5 45 -5.8 21.6
02:50 1000 29.53 829 24.48 5.2 41.3 48 -5 22.9
02:55 1000 29.53 829 24.48 5.1 41.1 47 -5.4 22.2
03:00 1000 29.53 829 24.48 5 41 46 -5.6 21.9
03:05 1000 29.53 829 24.48 5.1 41.2 45 -5.7 21.7
03:10 1000 29.53 829 24.48 5.1 41.2 46 -5.6 21.8
03:15 1000 29.53 829 24.48 5.1 41.1 47 -5.4 22.3
03:20 999 29.5 829 24.48 5 40.9 47 -5.5 22.1
03:25 999 29.5 828 24.45 5 41 47 -5.5 22.1
03:30 999 29.5 828 24.45 4.9 40.8 47 -5.5 22.1
03:35 999 29.5 828 24.45 5 41 45 -5.9 21.3
03:40 999 29.5 828 24.45 5.3 41.6 46 -5.5 22.1
03:45 999 29.5 828 24.45 5.4 41.7 45 -5.6 22
03:50 999 29.5 828 24.45 5.6 42 45 -5.4 22.2
03:55 999 29.5 828 24.45 5.6 42 45 -5.4 22.2
04:00 999 29.5 828 24.45 5.4 41.8 45 -5.5 22.1
04:05 999 29.5 828 24.45 5.2 41.4 47 -5.1 22.9
04:10 999 29.5 828 24.45 4.8 40.7 47 -5.4 22.2
04:15 999 29.5 828 24.45 4.9 40.8 47 -5.5 22.1
04:20 998 29.47 828 24.45 5 41 46 -5.6 22
04:25 998 29.47 827 24.42 4.9 40.8 46 -5.9 21.4
04:30 998 29.47 828 24.45 4.8 40.7 46 -5.7 21.7
04:35 998 29.47 827 24.42 4.9 40.8 45 -6 21.2
04:40 998 29.47 827 24.42 4.8 40.7 47 -5.6 21.8
04:45 998 29.47 827 24.42 4.9 40.9 45 -6 21.1
04:50 998 29.47 828 24.45 4.9 40.7 44 -6.3 20.6
04:55 999 29.5 828 24.45 4.8 40.7 46 -5.8 21.5
05:00 999 29.5 828 24.45 4.7 40.4 45 -6.2 20.9
05:05 999 29.5 828 24.45 4.8 40.6 46 -5.9 21.5
05:10 999 29.5 828 24.45 4.6 40.4 47 -5.8 21.6
05:15 998 29.47 828 24.45 4.6 40.3 47 -5.7 21.8
05:20 998 29.47 828 24.45 4.6 40.3 48 -5.6 22
05:25 998 29.47 828 24.45 4.7 40.5 48 -5.4 22.3
05:30 998 29.47 828 24.45 4.8 40.7 48 -5.4 22.3
05:35 998 29.47 827 24.42 4.8 40.6 49 -5.2 22.7
05:40 998 29.47 828 24.45 4.6 40.3 48 -5.4 22.4
05:45 998 29.47 828 24.45 4.4 40 52 -4.6 23.7
05:50 998 29.47 828 24.45 4.2 39.5 52 -4.8 23.3
05:55 998 29.47 828 24.45 4.1 39.5 55 -4.2 24.4
06:00 998 29.47 828 24.45 4.1 39.4 54 -4.3 24.2
06:05 998 29.47 828 24.45 4 39.2 53 -4.7 23.6
06:10 998 29.47 828 24.45 4.1 39.3 55 -4.1 24.7
06:15 998 29.47 828 24.45 3.9 39.1 54 -4.4 24
06:20 998 29.47 828 24.45 3.9 39.1 56 -4.1 24.5
06:25 998 29.47 828 24.45 3.8 38.9 54 -4.6 23.8
06:30 998 29.47 828 24.45 4 39.1 53 -4.6 23.6
06:35 998 29.47 827 24.42 4.2 39.6 51 -5 22.9
06:40 998 29.47 827 24.42 4.4 39.8 51 -5 23
06:45 998 29.47 827 24.42 4.5 40 50 -5.1 22.8
06:50 998 29.47 827 24.42 4.4 39.9 52 -4.5 24
06:55 998 29.47 827 24.42 4.5 40.2 49 -5.2 22.6
07:00 998 29.47 827 24.42 4.7 40.4 49 -5 23
07:05 998 29.47 827 24.42 4.5 40.2 50 -4.9 23.1
07:10 998 29.47 828 24.45 4.3 39.8 51 -4.9 23.3
07:15 998 29.47 828 24.45 4.4 39.9 51 -4.9 23.1
07:20 998 29.47 828 24.45 4.3 39.7 53 -4.5 23.8
07:25 998 29.47 828 24.45 4.1 39.5 53 -4.7 23.5
07:30 998 29.47 828 24.45 4.4 39.9 51 -4.9 23.2
07:35 998 29.47 828 24.45 4.5 40.2 50 -5.1 22.8
07:40 998 29.47 827 24.42 4.5 40.1 51 -4.7 23.5
07:45 998 29.47 828 24.45 4.3 39.7 51 -4.9 23.2
07:50 998 29.47 828 24.45 4.3 39.7 51 -5 23
07:55 998 29.47 828 24.45 4.3 39.8 51 -5.1 22.9
08:00 998 29.47 828 24.45 4.3 39.8 51 -4.9 23.2
08:05 998 29.47 828 24.45 4.4 39.9 51 -5 23
08:10 999 29.5 828 24.45 4.2 39.5 55 -4 24.7
08:15 999 29.5 828 24.45 3.6 38.6 57 -4.1 24.6
08:20 999 29.5 828 24.45 3.9 39 51 -5.3 22.4
08:25 999 29.5 829 24.48 3.8 38.8 69 -1.4 29.5
08:30 1000 29.53 829 24.48 1.7 35.1 80 -1.5 29.4
08:35 1000 29.53 829 24.48 0.7 33.3 87 -1.2 29.9
08:40 1000 29.53 829 24.48 -0 31.9 92 -1.1 30
08:45 1000 29.53 830 24.51 -0.6 31 94 -1.4 29.5
08:50 1000 29.53 830 24.51 -0.8 30.6 95 -1.4 29.4
08:55 1001 29.56 830 24.51 -0.9 30.4 96 -1.4 29.5
09:00 1001 29.56 830 24.51 -1 30.3 97 -1.4 29.4
09:05 1001 29.56 830 24.51 -1 30.2 97 -1.5 29.3
09:10 1001 29.56 830 24.51 -1 30.1 97 -1.5 29.3
09:15 1001 29.56 831 24.54 -1.1 30.1 97 -1.5 29.3
09:20 1002 29.59 831 24.54 -1.1 30.1 97 -1.5 29.2
09:25 1002 29.59 831 24.54 -1.2 29.9 97 -1.6 29.1
09:30 1002 29.59 831 24.54 -1.3 29.7 97 -1.7 28.9
09:35 1002 29.59 831 24.54 -1.3 29.7 97 -1.8 28.8
09:40 1002 29.59 831 24.54 -1.3 29.6 97 -1.7 28.9
09:45 1002 29.59 831 24.54 -1.3 29.6 96 -1.8 28.7
09:50 1002 29.59 832 24.57 -1.3 29.6 97 -1.8 28.8
09:55 1002 29.59 832 24.57 -1.3 29.7 97 -1.7 28.9
10:00 1002 29.59 832 24.57 -1.2 29.8 96 -1.7 28.9
10:05 1003 29.62 832 24.57 -1.2 29.8 96 -1.7 28.9
10:10 1003 29.62 832 24.57 -1.2 29.9 97 -1.6 29.1
10:15 1003 29.62 832 24.57 -1.2 29.9 97 -1.6 29.1
10:20 1003 29.62 832 24.57 -1.2 29.9 97 -1.6 29.1
10:25 1003 29.62 832 24.57 -1.2 29.8 97 -1.6 29
10:30 1003 29.62 832 24.57 -1.2 29.8 97 -1.7 29
10:35 1003 29.62 832 24.57 -1.2 29.8 97 -1.7 29
10:40 1003 29.62 832 24.57 -1.3 29.7 97 -1.7 29
10:45 1003 29.62 832 24.57 -1.2 29.9 97 -1.6 29.1
10:50 1003 29.62 832 24.57 -1.1 30 97 -1.5 29.2
10:55 1003 29.62 833 24.6 -1.2 29.8 97 -1.6 29
11:00 1003 29.62 833 24.6 -1.3 29.7 97 -1.8 28.8
11:05 1003 29.62 833 24.6 -1.5 29.3 96 -2 28.4
11:10 1004 29.65 833 24.6 -1.6 29.1 97 -2.1 28.3
11:15 1004 29.65 833 24.6 -1.7 29 97 -2.1 28.2
11:20 1004 29.65 833 24.6 -1.6 29 97 -2.1 28.3
11:25 1004 29.65 833 24.6 -1.6 29.1 96 -2.1 28.2
11:30 1004 29.65 833 24.6 -1.7 28.9 96 -2.3 27.9
11:35 1004 29.65 833 24.6 -1.7 28.9 96 -2.3 27.9
11:40 1004 29.65 833 24.6 -1.8 28.8 96 -2.3 27.8
11:45 1004 29.65 833 24.6 -1.9 28.6 96 -2.5 27.5
11:50 1004 29.65 833 24.6 -2 28.4 95 -2.7 27.2
11:55 1004 29.65 833 24.6 -2.5 27.5 95 -3.2 26.3
12:00 1004 29.65 833 24.6 -2.6 27.4 94 -3.3 26
12:05 1004 29.65 834 24.63 -2.6 27.4 95 -3.3 26
12:10 1004 29.65 834 24.63 -2.5 27.5 95 -3.2 26.2
12:15 1005 29.68 834 24.63 -2.3 27.8 94 -3.2 26.2
12:20 1005 29.68 834 24.63 -2.3 27.8 95 -3.1 26.5
12:25 1005 29.68 834 24.63 -2.3 27.9 94 -3.1 26.5
12:30 1005 29.68 834 24.63 -2.3 27.8 94 -3.2 26.3
12:35 1005 29.68 834 24.63 -2.3 27.8 94 -3.2 26.2
12:40 1004 29.65 834 24.63 -2.4 27.7 92 -3.4 25.8
12:45 1004 29.65 833 24.6 -2.5 27.6 93 -3.4 25.8
12:50 1004 29.65 833 24.6 -2.9 26.8 91 -4.1 24.6
12:55 1004 29.65 833 24.6 -3.3 26.1 89 -4.8 23.4
13:00 1004 29.65 833 24.6 -3.4 25.9 90 -4.8 23.3
13:05 1004 29.65 833 24.6 -3.2 26.2 89 -4.8 23.3
13:10 1004 29.65 834 24.63 -3.1 26.4 86 -5.1 22.8
13:15 1004 29.65 834 24.63 -3.2 26.3 86 -5.1 22.8
13:20 1004 29.65 834 24.63 -3.1 26.3 84 -5.5 22.2
13:25 1004 29.65 833 24.6 -3 26.7 82 -5.6 21.9
13:30 1004 29.65 834 24.63 -2.8 27 81 -5.5 22
13:35 1004 29.65 834 24.63 -2.6 27.3 78 -6 21.2
13:40 1004 29.65 833 24.6 -2.4 27.7 74 -6.4 20.6
13:45 1004 29.65 834 24.63 -2.1 28.2 72 -6.5 20.3
13:50 1004 29.65 834 24.63 -1.8 28.7 67 -7.2 19
13:55 1005 29.68 834 24.63 -1.5 29.2 65 -7.2 19.1
14:00 1005 29.68 834 24.63 -1 30.1 64 -7 19.5
14:05 1005 29.68 834 24.63 -0.8 30.5 62 -7.1 19.2
14:10 1005 29.68 834 24.63 -0.8 30.6 62 -7.2 19.1
14:15 1005 29.68 834 24.63 -0.7 30.8 63 -6.9 19.6
14:20 1005 29.68 834 24.63 -0.5 31.1 61 -7.1 19.2
14:25 1005 29.68 834 24.63 -0.1 31.8 60 -6.9 19.6
14:30 1005 29.68 834 24.63 0.2 32.3 59 -7 19.4
14:35 1005 29.68 834 24.63 0.3 32.6 58 -6.9 19.5
14:40 1005 29.68 834 24.63 0.6 33.1 59 -6.6 20.2
14:45 1005 29.68 834 24.63 1 33.8 59 -6.2 20.8
14:50 1005 29.68 834 24.63 0.9 33.7 54 -7.4 18.8
14:55 1005 29.68 834 24.63 0.9 33.5 54 -7.5 18.5
15:00 1005 29.68 834 24.63 1.3 34.3 52 -7.5 18.5
15:05 1005 29.68 834 24.63 1.8 35.2 51 -7.4 18.6
15:10 1004 29.65 834 24.63 1.5 34.7 54 -6.9 19.5
15:15 1004 29.65 833 24.6 -0.3 31.5 57 -7.7 18.1
15:20 1004 29.65 833 24.6 -0.6 30.9 54 -8.7 16.3
15:25 1004 29.65 833 24.6 -0.4 31.3 55 -8.3 17.1
15:30 1004 29.65 833 24.6 -0.6 31 55 -8.4 16.8
15:35 1004 29.65 833 24.6 -1 30.2 57 -8.4 16.9
15:40 1004 29.65 833 24.6 -1.1 30 57 -8.6 16.5
15:45 1004 29.65 833 24.6 -1.2 29.8 56 -8.9 15.9
15:50 1004 29.65 833 24.6 -1 30.3 56 -8.7 16.3
15:55 1004 29.65 833 24.6 -1.2 29.8 56 -8.9 16.1
16:00 1004 29.65 834 24.63 -1.4 29.5 56 -9 15.9
16:05 1004 29.65 833 24.6 -0.9 30.4 55 -8.8 16.1
16:10 1004 29.65 834 24.63 -1.1 30.1 56 -8.8 16.2
16:15 1004 29.65 833 24.6 -1.6 29 56 -9.2 15.4
16:20 1004 29.65 833 24.6 -1.8 28.8 55 -9.7 14.5
16:25 1004 29.65 833 24.6 -1.8 28.8 55 -9.6 14.7
16:30 1004 29.65 833 24.6 -2 28.5 54 -10.1 13.8
16:35 1004 29.65 833 24.6 -1.6 29.2 48 -11.2 11.8
16:40 1004 29.65 833 24.6 -0.9 30.4 48 -10.7 12.8
16:45 1004 29.65 833 24.6 -0.7 30.7 48 -10.4 13.2
16:50 1004 29.65 833 24.6 -0.7 30.7 48 -10.5 13.1
16:55 1004 29.65 833 24.6 -1.3 29.7 51 -10.2 13.6
17:00 1004 29.65 833 24.6 -1.6 29.1 52 -10.2 13.6
17:05 1004 29.65 833 24.6 -1.4 29.5 52 -9.9 14.1
17:10 1004 29.65 833 24.6 -1.5 29.3 55 -9.5 15
17:15 1004 29.65 833 24.6 -1.5 29.3 57 -9 15.8
17:20 1004 29.65 833 24.6 -1.9 28.5 58 -9.3 15.3
17:25 1004 29.65 833 24.6 -1.8 28.8 54 -9.9 14.1
17:30 1004 29.65 833 24.6 -1.7 28.9 56 -9.3 15.2
17:35 1004 29.65 833 24.6 -1.8 28.7 59 -8.8 16.1
17:40 1004 29.65 833 24.6 -1.9 28.7 57 -9.3 15.3
17:45 1004 29.65 833 24.6 -1.7 29 57 -9.1 15.7
17:50 1004 29.65 833 24.6 -1.6 29.1 58 -8.9 15.9
17:55 1004 29.65 833 24.6 -1.7 28.9 59 -8.8 16.2
18:00 1004 29.65 833 24.6 -1.8 28.8 60 -8.6 16.6
18:05 1004 29.65 833 24.6 -1.8 28.8 60 -8.5 16.7
18:10 1004 29.65 833 24.6 -1.8 28.8 59 -8.8 16.2
18:15 1003 29.62 833 24.6 -1.7 29 59 -8.7 16.3
18:20 1003 29.62 832 24.57 -1.6 29 57 -9.1 15.6
18:25 1003 29.62 832 24.57 -1.6 29.2 57 -9.1 15.6
18:30 1003 29.62 832 24.57 -1.6 29.2 56 -9.1 15.5
18:35 1003 29.62 832 24.57 -1.7 29 56 -9.2 15.4
18:40 1003 29.62 832 24.57 -1.7 28.9 56 -9.3 15.3
18:45 1003 29.62 832 24.57 -1.8 28.8 57 -9.3 15.2
18:50 1003 29.62 832 24.57 -2 28.4 57 -9.3 15.2
18:55 1003 29.62 832 24.57 -2.1 28.2 58 -9.3 15.2
19:00 1003 29.62 832 24.57 -2.1 28.3 55 -10 13.9
19:05 1003 29.62 833 24.6 -1.9 28.7 53 -10.1 13.8
19:10 1003 29.62 832 24.57 -1.8 28.7 54 -9.8 14.3
19:15 1003 29.62 832 24.57 -1.9 28.6 55 -9.7 14.5
19:20 1003 29.62 832 24.57 -2 28.5 56 -9.7 14.5
19:25 1003 29.62 832 24.57 -2.1 28.1 57 -9.5 14.8
19:30 1003 29.62 832 24.57 -2.2 28.1 55 -10.1 13.8
19:35 1003 29.62 832 24.57 -1.8 28.7 54 -9.9 14.2
19:40 1003 29.62 832 24.57 -1.9 28.6 54 -9.9 14.1
19:45 1003 29.62 832 24.57 -2.1 28.3 56 -9.7 14.5
19:50 1003 29.62 832 24.57 -2.2 28 56 -9.9 14.1
19:55 1003 29.62 832 24.57 -2 28.3 54 -10.1 13.9
20:00 1003 29.62 833 24.6 -1.7 28.9 55 -9.7 14.6
20:05 1003 29.62 833 24.6 -1.7 28.9 55 -9.7 14.6
20:10 1003 29.62 832 24.57 -1.9 28.6 55 -9.7 14.5
20:15 1003 29.62 832 24.57 -1.9 28.6 55 -9.8 14.4
20:20 1003 29.62 833 24.6 -1.8 28.7 56 -9.5 14.9
20:25 1003 29.62 832 24.57 -1.7 28.9 56 -9.5 14.9
20:30 1003 29.62 832 24.57 -1.6 29.2 54 -9.8 14.4
20:35 1003 29.62 832 24.57 -1.5 29.2 53 -9.9 14.3
20:40 1003 29.62 832 24.57 -1.4 29.5 53 -9.8 14.4
20:45 1003 29.62 832 24.57 -1.2 29.8 53 -9.6 14.8
20:50 1003 29.62 832 24.57 -1.4 29.5 55 -9.2 15.4
20:55 1003 29.62 832 24.57 -1.4 29.5 55 -9.3 15.3
21:00 1003 29.62 832 24.57 -1.4 29.5 55 -9.4 15.1
21:05 1003 29.62 832 24.57 -1.2 29.9 51 -10.1 13.9
21:10 1003 29.62 832 24.57 -1 30.2 52 -9.7 14.5
21:15 1003 29.62 832 24.57 -1 30.1 50 -10.1 13.9
21:20 1003 29.62 832 24.57 -0.9 30.4 50 -10 14
21:25 1002 29.59 832 24.57 -0.8 30.6 51 -9.8 14.3
21:30 1002 29.59 832 24.57 -0.9 30.4 52 -9.5 14.9
21:35 1002 29.59 832 24.57 -0.9 30.3 52 -9.5 15
21:40 1002 29.59 832 24.57 -1 30.3 53 -9.4 15.1
21:45 1002 29.59 832 24.57 -1 30.3 52 -9.6 14.8
21:50 1002 29.59 832 24.57 -0.8 30.6 51 -9.7 14.5
21:55 1002 29.59 832 24.57 -0.7 30.7 55 -8.7 16.3
22:00 1002 29.59 832 24.57 -0.9 30.5 54 -9 15.9
22:05 1003 29.62 832 24.57 -0.9 30.5 55 -8.9 16
22:10 1003 29.62 832 24.57 -0.9 30.4 55 -8.9 15.9
22:15 1003 29.62 832 24.57 -0.9 30.3 55 -9 15.8
22:20 1003 29.62 832 24.57 -0.8 30.6 54 -8.9 16
22:25 1003 29.62 832 24.57 -0.7 30.7 55 -8.8 16.2
22:30 1002 29.59 832 24.57 -0.7 30.7 55 -8.7 16.4
22:35 1002 29.59 832 24.57 -0.7 30.7 54 -8.9 16
22:40 1002 29.59 832 24.57 -0.7 30.7 56 -8.4 16.8
22:45 1002 29.59 832 24.57 -0.8 30.6 56 -8.5 16.7
22:50 1002 29.59 832 24.57 -0.8 30.5 58 -8.1 17.4
22:55 1002 29.59 831 24.54 -0.9 30.4 58 -8.1 17.5
23:00 1002 29.59 831 24.54 -0.9 30.4 58 -8.1 17.5
23:05 1002 29.59 831 24.54 -0.9 30.4 59 -8 17.6
23:10 1002 29.59 831 24.54 -0.9 30.4 61 -7.5 18.4
23:15 1002 29.59 831 24.54 -1 30.2 61 -7.5 18.5
23:20 1002 29.59 831 24.54 -1 30.1 61 -7.5 18.4
23:25 1002 29.59 831 24.54 -1.1 30.1 61 -7.6 18.3
23:30 1002 29.59 831 24.54 -1 30.2 61 -7.7 18.2
23:35 1002 29.59 831 24.54 -0.8 30.5 58 -8.1 17.4
23:40 1002 29.59 831 24.54 -0.7 30.7 58 -7.9 17.8
23:45 1002 29.59 831 24.54 -0.8 30.6 60 -7.5 18.5
23:50 1002 29.59 831 24.54 -0.8 30.5 61 -7.5 18.4
23:55 1002 29.59 831 24.54 -0.9 30.4 61 -7.4 18.6
24:00 1002 29.59 831 24.54 -0.9 30.5 60 -7.7 18.1